Flight Track Log - Related Links

Times and Time Zones

All times are in EDT time to prevent confusion due to time zone crossing. See the EJA396 flight status page for this flight to view local times or setup timezone preferences in your user account.

Time Position Orientation Groundspeed Altitude Reporting Facility
EDT Latitude Longitude Course Direction KTS MPH feet Rate Location/Type
Fri 01:02:01 PM 38.7361 -92.1789 148° Southeast 227 261 6,400  Level Kansas City Center
Fri 01:03:01 PM 38.6708 -92.1256 147° Southeast 265 305 9,500 2,952 Climbing Kansas City Center
Fri 01:04:05 PM 38.5989 -92.0658 147° Southeast 296 341 12,500 3,048 Climbing Kansas City Center
Fri 01:05:05 PM 38.5197 -92.0019 148° Southeast 323 372 15,800 2,952 Climbing Kansas City Center
Fri 01:06:09 PM 38.4378 -91.9353 147° Southeast 340 391 18,600 2,544 Climbing Kansas City Center
Fri 01:07:10 PM 38.3536 -91.8672 148° Southeast 350 403 21,100 2,177 Climbing Kansas City Center
Fri 01:08:13 PM 38.2644 -91.7953 148° Southeast 365 420 23,100 2,049 Climbing Kansas City Center
Fri 01:09:13 PM 38.1558 -91.6950 144° Southeast 395 455 25,300 1,872 Climbing Kansas City Center
Fri 01:10:18 PM 38.0683 -91.5922 137° Southeast 418 481 27,000 1,619 Climbing Kansas City Center
Fri 01:11:19 PM 37.9772 -91.4886 138° Southeast 429 494 28,700 1,597 Climbing Kansas City Center
Fri 01:12:22 PM 37.8858 -91.3836 138° Southeast 437 503 30,300 1,512 Climbing Kansas City Center
Fri 01:13:22 PM 37.7925 -91.2772 138° Southeast 446 513 31,800 1,694 Climbing Kansas City Center
Fri 01:14:26 PM 37.6978 -91.1711 138° Southeast 450 518 33,800 1,984 Climbing Kansas City Center
Fri 01:15:26 PM 37.6075 -91.0672 138° Southeast 443 510 35,900 1,872 Climbing Kansas City Center
Fri 01:16:31 PM 37.5025 -90.9483 138° Southeast 426 490 37,700 1,333 Climbing Kansas City Center
Fri 01:17:32 PM 37.4119 -90.8483 139° Southeast 427 491 38,700 934 Climbing Kansas City Center
Fri 01:18:33 PM 37.3339 -90.7561 137° Southeast 428 493 39,600 934 Climbing Kansas City Center
Fri 01:19:34 PM 37.2425 -90.6578 139° Southeast 431 496 40,600 1,065 Climbing Kansas City Center
Fri 01:20:37 PM 37.1364 -90.5408 139° Southeast 425 489 41,800 898 Climbing Kansas City Center
Fri 01:21:41 PM 37.0506 -90.4422 137° Southeast 420 483 42,500 576 Climbing Kansas City Center
Fri 01:22:42 PM 36.9619 -90.3464 139° Southeast 420 483 43,000 246 Climbing Kansas City Center
Fri 01:23:43 PM 36.8711 -90.2478 139° Southeast 429 494 43,000  Level Kansas City Center
Fri 01:24:44 PM 36.7797 -90.1450 138° Southeast 438 504 43,000  Level Kansas City Center
Fri 01:25:48 PM 36.6872 -90.0433 139° Southeast 442 509 43,000  Level Kansas City Center
Fri 01:26:51 PM 36.5750 -89.9214 139° Southeast 446 513 43,000  Level Kansas City Center
Fri 01:27:51 PM 36.4811 -89.8178 138° Southeast 450 518 43,000  Level Kansas City Center
Fri 01:28:53 PM 36.3969 -89.7272 139° Southeast 451 519 43,000  Level Kansas City Center
Fri 01:29:57 PM 36.2828 -89.6053 139° Southeast 452 520 43,000  Level Kansas City Center
Fri 01:31:00 PM 36.1700 -89.4906 141° Southeast 458 527 43,000  Level Memphis Center
Fri 01:32:00 PM 36.0775 -89.3864 138° Southeast 458 527 43,000  Level Memphis Center
Fri 01:33:00 PM 35.9914 -89.2950 139° Southeast 458 527 43,000  Level Memphis Center
Fri 01:34:00 PM 35.8986 -89.1911 138° Southeast 458 527 43,000  Level Memphis Center
Fri 01:35:00 PM 35.8017 -89.0875 139° Southeast 464 534 43,000  Level Memphis Center
Fri 01:36:00 PM 35.7047 -88.9842 139° Southeast 464 534 43,000  Level Memphis Center
Fri 01:37:00 PM 35.6056 -88.8761 138° Southeast 454 522 43,000  Level Memphis Center
Fri 01:38:00 PM 35.5147 -88.7833 140° Southeast 459 528 43,000  Level Memphis Center
Fri 01:39:00 PM 35.4194 -88.6806 139° Southeast 464 534 43,000  Level Memphis Center
Fri 01:40:00 PM 35.3156 -88.5683 139° Southeast 459 528 43,000  Level Memphis Center
Fri 01:41:00 PM 35.2225 -88.4761 141° Southeast 459 528 43,000  Level Memphis Center
Fri 01:42:00 PM 35.1250 -88.3767 140° Southeast 454 522 43,000  Level Memphis Center
Fri 01:43:00 PM 35.0317 -88.2800 140° Southeast 454 522 43,000  Level Memphis Center
Fri 01:44:00 PM 34.9339 -88.1811 140° Southeast 454 522 43,000  Level Memphis Center
Fri 01:45:00 PM 34.8467 -88.0847 138° Southeast 462 532 43,000  Level Memphis Center
Fri 01:46:00 PM 34.7489 -87.9864 140° Southeast 457 526 43,000  Level Memphis Center
Fri 01:47:00 PM 34.6444 -87.8781 140° Southeast 457 526 43,000  Level Memphis Center
Fri 01:48:00 PM 34.5486 -87.7825 141° Southeast 457 526 43,000  Level Memphis Center
Fri 01:49:00 PM 34.4486 -87.6825 140° Southeast 452 520 43,000  Level Memphis Center
Fri 01:51:53 PM 34.1658 -87.3978 140° Southeast 471 542 43,000  Level Atlanta Center
Fri 01:52:53 PM 34.0703 -87.3014 140° Southeast 443 510 43,000  Level Atlanta Center
Fri 01:53:53 PM 33.9750 -87.2025 139° Southeast 476 548 43,000  Level Atlanta Center
Fri 01:54:53 PM 33.8772 -87.1064 141° Southeast 471 542 43,000  Level Atlanta Center
Fri 01:55:53 PM 33.7794 -87.0078 140° Southeast 465 535 43,000  Level Atlanta Center
Fri 01:56:53 PM 33.6814 -86.9122 141° Southeast 465 535 43,000  Level Atlanta Center
Fri 01:57:53 PM 33.5811 -86.8239 144° Southeast 459 528 43,000  Level Atlanta Center
Fri 01:58:53 PM 33.4786 -86.7386 145° Southeast 454 522 43,000  Level Atlanta Center
Fri 01:59:53 PM 33.3742 -86.6506 145° Southeast 454 522 43,000  Level Atlanta Center
Fri 02:00:53 PM 33.2903 -86.5736 143° Southeast 454 522 43,000  Level Atlanta Center
Fri 02:01:53 PM 33.1875 -86.4886 145° Southeast 447 514 43,000  Level Atlanta Center
Fri 02:02:53 PM 33.0847 -86.4064 146° Southeast 442 509 43,000  Level Atlanta Center
Fri 02:03:53 PM 32.9861 -86.3222 144° Southeast 442 509 43,000  Level Atlanta Center
Fri 02:04:53 PM 32.8833 -86.2378 145° Southeast 442 509 43,000  Level Atlanta Center
Fri 02:05:53 PM 32.7825 -86.1561 146° Southeast 442 509 43,000  Level Atlanta Center
Fri 02:06:53 PM 32.6794 -86.0722 146° Southeast 442 509 43,000  Level Atlanta Center
Fri 02:07:53 PM 32.5706 -85.9811 145° Southeast 442 509 43,000  Level Atlanta Center
Fri 02:08:53 PM 32.4653 -85.9025 148° Southeast 442 509 43,000  Level Atlanta Center
Fri 02:09:53 PM 32.3642 -85.8192 145° Southeast 447 514 43,000  Level Atlanta Center
Fri 02:10:53 PM 32.2653 -85.7289 142° Southeast 447 514 43,000  Level Atlanta Center
Fri 02:11:53 PM 32.1619 -85.6483 147° Southeast 452 520 43,000  Level Atlanta Center
Fri 02:12:53 PM 32.0628 -85.5681 146° Southeast 447 514 43,000  Level Atlanta Center
Fri 02:15:11 PM 31.8372 -85.3894 146° Southeast 455 524 43,000  Level Jacksonville Center
Fri 02:16:11 PM 31.7406 -85.3111 145° Southeast 441 507 43,000  Level Jacksonville Center
Fri 02:17:10 PM 31.6378 -85.2303 146° Southeast 441 507 43,000  Level Jacksonville Center
Fri 02:18:10 PM 31.5369 -85.1497 146° Southeast 436 502 43,000  Level Jacksonville Center
Fri 02:19:10 PM 31.4381 -85.0719 146° Southeast 436 502 43,000  Level Jacksonville Center
Fri 02:20:11 PM 31.3283 -85.0061 153° Southeast 436 502 43,000  Level Jacksonville Center
Fri 02:21:10 PM 31.2167 -84.9478 156° South 436 502 43,000  Level Jacksonville Center
Fri 02:22:11 PM 31.1050 -84.8822 153° Southeast 441 507 43,000  Level Jacksonville Center
Fri 02:23:11 PM 30.9953 -84.8192 154° Southeast 441 507 43,000  Level Jacksonville Center
Fri 02:24:11 PM 30.8667 -84.7514 156° South 448 516 43,000  Level Jacksonville Center
Fri 02:25:11 PM 30.7675 -84.6961 154° Southeast 448 516 43,000  Level Jacksonville Center
Fri 02:26:10 PM 30.6533 -84.6336 155° Southeast 448 516 43,000  Level Jacksonville Center
Fri 02:27:11 PM 30.5292 -84.5639 154° Southeast 453 521 43,000  Level Jacksonville Center
Fri 02:28:11 PM 30.4131 -84.5017 155° Southeast 453 521 43,000  Level Jacksonville Center
Fri 02:29:11 PM 30.2967 -84.4394 155° Southeast 458 527 43,000  Level Jacksonville Center
Fri 02:30:11 PM 30.1786 -84.3728 154° Southeast 458 527 43,000  Level Jacksonville Center
Fri 02:31:11 PM 30.0644 -84.3111 155° Southeast 458 527 43,000  Level Jacksonville Center
Fri 02:32:11 PM 29.9483 -84.2494 155° Southeast 458 527 43,000  Level Jacksonville Center
Fri 02:33:11 PM 29.8319 -84.1856 155° Southeast 458 527 43,000  Level Jacksonville Center
Fri 02:34:11 PM 29.7156 -84.1264 156° South 458 527 43,000  Level Jacksonville Center
Fri 02:35:11 PM 29.5972 -84.0628 155° Southeast 458 527 43,000  Level Jacksonville Center
Fri 02:36:11 PM 29.4831 -84.0019 155° Southeast 458 527 43,000  Level Jacksonville Center
Fri 02:37:11 PM 29.3750 -83.9436 155° Southeast 466 536 43,000  Level Jacksonville Center
Fri 02:38:11 PM 29.2586 -83.8828 155° Southeast 466 536 43,000  Level Jacksonville Center
Fri 02:39:11 PM 29.1400 -83.8197 155° Southeast 461 531 43,000  Level Jacksonville Center
Fri 02:40:11 PM 29.0214 -83.7544 154° Southeast 461 531 43,000  Level Jacksonville Center
Fri 02:41:11 PM 28.9050 -83.6942 156° South 461 531 43,000 -344 Level Jacksonville Center
Fri 02:43:40 PM 28.5958 -83.5292 155° Southeast 466 536 41,800 -1,091 Descending Miami Center
Fri 02:44:40 PM 28.4717 -83.4650 156° South 479 551 39,200 -2,500 Descending Miami Center
Fri 02:45:40 PM 28.3536 -83.4039 156° South 479 551 36,800 -2,100 Descending Miami Center
Fri 02:46:40 PM 28.2447 -83.3692 164° South 464 534 35,000 -1,650 Descending Miami Center
Fri 02:47:40 PM 28.1194 -83.3714 181° South 450 518 33,500 -1,950 Descending Miami Center
Fri 02:48:40 PM 27.9925 -83.3686 179° South 450 518 31,100 -2,450 Descending Miami Center
Fri 02:49:40 PM 27.8633 -83.3661 179° South 462 532 28,600 -2,500 Descending Miami Center
Fri 02:50:40 PM 27.7325 -83.3539 175° South 468 539 26,100 -2,150 Descending Miami Center
Fri 02:51:40 PM 27.6336 -83.2756 145° Southeast 431 496 24,300 -1,500 Descending Miami Center
Fri 02:52:40 PM 27.5375 -83.1908 142° Southeast 436 502 23,100 -1,200 Descending Miami Center
Fri 02:53:40 PM 27.4472 -83.1061 140° Southeast 431 496 21,900 -1,200 Descending Miami Center
Fri 02:54:40 PM 27.3567 -83.0267 142° Southeast 426 490 20,700 -1,200 Descending Miami Center
Fri 02:55:40 PM 27.2706 -82.9450 140° Southeast 421 484 19,500 -1,200 Descending Miami Center
Fri 02:56:40 PM 27.1822 -82.8633 141° Southeast 416 479 18,300 -1,150 Descending Miami Center
Fri 02:57:40 PM 27.0975 -82.7889 142° Southeast 406 467 17,200 -1,150 Descending Miami Center
Fri 02:58:40 PM 27.0150 -82.7147 141° Southeast 395 455 16,000 -1,300 Descending Miami Center
Fri 02:59:40 PM 26.9344 -82.6433 142° Southeast 382 440 14,600 -1,450 Descending Miami Center
Fri 03:00:40 PM 26.8539 -82.5719 142° Southeast 375 432 13,100 -1,550 Descending Miami Center
Fri 03:01:40 PM 26.7753 -82.4958 139° Southeast 375 432 11,500 -1,600 Descending Miami Center
Fri 03:02:40 PM 26.7006 -82.4319 143° Southeast 361 415 9,900 -1,750 Descending Miami Center
Fri 03:03:40 PM 26.6278 -82.3681 142° Southeast 315 362 8,000 -1,450 Descending Miami Center
Fri 03:04:40 PM 26.5589 -82.3183 147° Southeast 299 344 7,000 -500 Descending Miami Center
Fri 03:05:40 PM 26.4897 -82.2664 146° Southeast 293 337 7,000  Level Miami Center
Fri 03:06:40 PM 26.4228 -82.2169 147° Southeast 293 337 7,000 -700 Level Miami Center
Fri 03:07:40 PM 26.3664 -82.1567 136° Southeast 293 337 5,600 -1,000 Descending Miami Center
Fri 03:08:40 PM 26.3122 -82.0986 136° Southeast 277 319 5,000 -1,000 Descending Miami Center
Fri 03:09:40 PM 26.2600 -82.0383 134° Southeast 271 312 3,600 -1,400 Descending Miami Center
Fri 03:11:00 PM 26.1071 -81.9869 156° South  Level FlightAware Approximate
Fri 03:18:00 PM 26.1524 -81.7756 66° East  Level Estimated
Fri 03:19:00 PM 26.1524 -81.7756 66° East  Level Estimated
Fri 03:20:00 PM 26.1524 -81.7756 66° East  Level Estimated
Fri 03:21:00 PM 26.1524 -81.7756 66° East  Level Estimated
Fri 03:22:00 PM 26.1524 -81.7756 66° East  Level Estimated
Fri 03:23:00 PM 26.1524 -81.7756 66° East  Level Estimated
Fri 03:24:00 PM 26.1524 -81.7756 66° East  Level Estimated

Login

Don't have an account? Register now (free) for customized features, flight alerts, and more!